Time;durP1;ratioP1;P1;durP2;ratioP2;P2;SDS_P1;SDS_P2;PMS_P1;PMS_P2;Temp;Humidity;BMP_temperature;BMP_pressure;BME280_temperature;BME280_humidity;BME280_pressure;Samples;Min_cycle;Max_cycle;Signal;HPM_P1;HPM_P2
2023/04/20 00:01:46;;;;;;;0.53;0.50;;;15.00;92.90;;;15.44;41.41;101573.84;6066420;22;97459;-48
2023/04/20 00:04:14;;;;;;;2.30;1.37;;;15.20;92.50;;;15.46;33.75;101566.66;6069056;22;97253;-48
2023/04/20 00:06:41;;;;;;;1.37;1.10;;;15.30;77.60;;;15.48;40.44;101571.00;6066539;22;98362;-52
2023/04/20 00:09:07;;;;;;;1.57;1.00;;;15.30;90.10;;;15.41;34.51;101568.66;6068736;22;97327;-48
2023/04/20 00:11:33;;;;;;;2.70;1.83;;;15.20;85.40;;;15.51;38.22;101563.84;6066622;22;97575;-53
2023/04/20 00:13:58;;;;;;;1.70;1.20;;;15.30;83.40;;;15.58;34.19;101566.16;6042126;23;111244;-52
2023/04/20 00:16:24;;;;;;;1.47;1.20;;;15.50;81.80;;;15.70;40.83;101565.69;6064282;22;97376;-53
2023/04/20 00:18:50;;;;;;;0.70;0.57;;;15.60;90.30;;;15.74;40.26;101561.09;6071667;22;97725;-52
2023/04/20 00:21:16;;;;;;;2.63;1.30;;;15.60;89.00;;;15.72;40.08;101547.84;6042949;23;104429;-51
2023/04/20 00:23:42;;;;;;;0.80;0.80;;;15.50;86.10;;;15.79;40.87;101550.25;6066909;22;97315;-51
2023/04/20 00:26:07;;;;;;;2.50;1.37;;;15.60;91.70;;;15.73;37.37;101544.25;6059864;23;115339;-47
2023/04/20 00:28:33;;;;;;;1.50;0.70;;;15.60;79.00;;;15.68;40.32;101535.63;6078899;22;112940;-50
2023/04/20 00:30:59;;;;;;;1.07;0.70;;;15.50;89.60;;;15.71;40.65;101534.63;6083790;22;97497;-50
2023/04/20 00:33:25;;;;;;;2.63;1.20;;;15.50;91.30;;;15.77;34.17;101523.72;6055077;22;97607;-47
2023/04/20 00:35:50;;;;;;;1.93;1.27;;;15.70;84.60;;;15.91;39.28;101521.34;6083880;22;112568;-48
2023/04/20 00:38:16;;;;;;;2.13;1.33;;;15.80;83.30;;;15.88;32.34;101515.25;6089133;22;97197;-51
2023/04/20 00:40:43;;;;;;;1.00;0.80;;;15.80;78.50;;;15.98;40.36;101511.28;6056750;22;108283;-49
2023/04/20 00:43:13;;;;;;;3.00;1.37;;;15.90;91.40;;;16.12;39.48;101514.19;6084926;22;97316;-48
2023/04/20 00:45:40;;;;;;;1.10;0.80;;;16.10;87.50;;;16.07;40.18;101508.22;6082061;22;97465;-50
2023/04/20 00:48:06;;;;;;;0.57;0.47;;;16.00;91.30;;;16.17;39.85;101506.84;6082560;23;119297;-51
2023/04/20 00:50:33;;;;;;;1.77;0.73;;;16.20;91.30;;;16.16;38.31;101505.09;6055660;22;97453;-49
2023/04/20 00:53:01;;;;;;;1.87;0.80;;;16.10;85.70;;;16.11;39.85;101499.16;6084392;22;97388;-48
2023/04/20 00:55:29;;;;;;;1.27;0.77;;;16.00;90.70;;;16.17;39.97;101500.66;6055523;23;98417;-49
2023/04/20 00:57:55;;;;;;;1.10;0.60;;;16.20;91.20;;;16.29;39.50;101486.78;6083557;22;98058;-52
2023/04/20 01:00:21;;;;;;;1.30;0.90;;;16.30;90.20;;;16.30;39.82;101491.16;6086447;22;97124;-52
2023/04/20 01:02:47;;;;;;;1.20;0.60;;;16.30;90.30;;;16.34;39.56;101477.63;6053807;23;97555;-53
2023/04/20 01:05:13;;;;;;;0.80;0.80;;;16.30;90.40;;;16.39;39.74;101481.91;6083804;23;98313;-52
2023/04/20 01:07:39;;;;;;;2.23;1.17;;;16.30;91.30;;;16.31;31.72;101471.59;6081989;22;97562;-52
2023/04/20 01:10:07;;;;;;;1.27;1.00;;;16.30;76.00;;;16.24;39.44;101479.03;6085133;22;97262;-51
2023/04/20 01:12:33;;;;;;;1.60;1.10;;;16.10;88.40;;;16.30;39.66;101473.41;6082739;22;98485;-50
2023/04/20 01:14:58;;;;;;;1.93;1.20;;;16.20;91.20;;;16.30;39.12;101470.72;6085724;22;98571;-50
2023/04/20 01:17:26;;;;;;;0.90;0.80;;;16.30;85.80;;;16.22;39.38;101480.03;6054809;22;97108;-52
2023/04/20 01:19:52;;;;;;;2.30;1.20;;;16.10;89.90;;;16.24;39.95;101471.03;6087285;22;97206;-50
2023/04/20 01:22:21;;;;;;;0.80;0.80;;;16.10;90.90;;;16.28;39.98;101467.28;6084164;22;97548;-53
2023/04/20 01:24:47;;;;;;;1.07;0.60;;;16.30;91.30;;;16.25;40.30;101467.44;6081339;22;100991;-47
2023/04/20 01:27:15;;;;;;;1.77;1.30;;;16.40;91.30;;;16.36;38.77;101462.47;6086020;22;98395;-53
2023/04/20 01:29:42;;;;;;;2.87;1.70;;;16.40;85.70;;;16.38;34.78;101456.22;6080061;22;96885;-51
2023/04/20 01:32:08;;;;;;;1.73;1.30;;;16.40;80.30;;;16.20;34.50;101455.25;6084052;22;97452;-49
2023/04/20 01:34:34;;;;;;;1.60;0.93;;;16.00;81.50;;;16.22;39.79;101456.06;6082669;22;98204;-48
2023/04/20 01:37:01;;;;;;;1.67;1.33;;;16.00;90.20;;;16.20;39.54;101452.59;6082516;22;97339;-47
2023/04/20 01:39:27;;;;;;;1.10;0.80;;;16.00;90.00;;;16.25;39.98;101459.44;6082972;22;97408;-50
2023/04/20 01:41:53;;;;;;;1.20;0.80;;;16.20;91.40;;;16.27;39.72;101460.22;6087758;22;97383;-49
2023/04/20 01:44:18;;;;;;;2.43;1.57;;;16.20;91.10;;;16.25;36.77;101451.47;6063344;23;97589;-51
2023/04/20 01:46:44;;;;;;;1.23;0.90;;;16.10;84.10;;;16.05;38.80;101448.84;6083474;22;113218;-51
2023/04/20 01:49:10;;;;;;;1.93;1.33;;;15.70;83.60;;;16.03;39.08;101456.03;6083988;22;97269;-50
2023/04/20 01:51:36;;;;;;;2.27;1.70;;;15.60;84.50;;;15.93;36.57;101452.09;6079419;22;97396;-51
2023/04/20 01:54:02;;;;;;;3.47;2.03;;;15.60;81.90;;;15.79;35.38;101451.84;6084309;22;115066;-51
2023/04/20 01:56:28;;;;;;;2.30;1.67;;;15.40;83.80;;;15.56;35.66;101445.69;6054361;22;98283;-51
2023/04/20 01:58:54;;;;;;;2.10;1.07;;;15.00;83.20;;;15.46;39.45;101441.69;6085962;22;97266;-47
2023/04/20 02:01:20;;;;;;;3.00;1.40;;;14.80;85.30;;;15.40;41.14;101439.31;6085686;22;97471;-50
2023/04/20 02:03:47;;;;;;;3.03;1.90;;;14.80;87.40;;;15.18;37.17;101423.41;6078335;22;97970;-50
2023/04/20 02:06:13;;;;;;;2.63;1.90;;;14.60;83.40;;;15.02;37.61;101422.34;6084782;22;97389;-49
2023/04/20 02:08:39;;;;;;;2.93;1.67;;;14.40;83.10;;;14.99;40.60;101428.66;6053340;22;97527;-49
2023/04/20 02:11:05;;;;;;;2.93;1.80;;;14.30;85.40;;;14.90;38.26;101418.44;6082431;22;97973;-47
2023/04/20 02:13:31;;;;;;;2.83;1.80;;;14.30;84.60;;;14.70;39.41;101410.41;6082251;22;98067;-47
2023/04/20 02:15:56;;;;;;;3.00;1.80;;;14.10;84.50;;;14.72;36.61;101404.09;6083773;22;97230;-49
2023/04/20 02:18:23;;;;;;;3.53;0.90;;;14.10;84.60;;;14.70;42.91;101407.75;6053098;22;107352;-57
2023/04/20 02:20:49;;;;;;;2.87;1.60;;;14.10;92.90;;;14.69;36.47;101406.03;6084449;22;97619;-49
2023/04/20 02:23:15;;;;;;;1.50;1.40;;;14.30;84.60;;;14.64;39.61;101405.34;6082549;22;98063;-52
2023/04/20 02:25:41;;;;;;;3.00;1.37;;;14.10;87.00;;;14.49;36.44;101402.38;6082484;22;97506;-51
2023/04/20 02:28:07;;;;;;;1.67;1.17;;;14.00;85.20;;;14.54;43.38;101397.75;6083944;22;105997;-51
2023/04/20 02:30:32;;;;;;;1.33;1.07;;;14.00;90.70;;;14.61;43.28;101392.19;6080727;22;97534;-49
2023/04/20 02:32:59;;;;;;;2.57;1.70;;;14.00;92.90;;;14.55;37.83;101380.88;6084782;22;121146;-52
2023/04/20 02:35:25;;;;;;;4.57;1.63;;;14.10;86.80;;;14.47;37.68;101377.69;6080422;22;97375;-49
2023/04/20 02:37:51;;;;;;;2.20;1.70;;;14.00;83.10;;;14.56;42.64;101381.75;6083034;23;97177;-50
2023/04/20 02:40:17;;;;;;;2.70;2.10;;;14.00;87.90;;;14.48;40.50;101374.13;6085907;22;109706;-51
2023/04/20 02:42:42;;;;;;;3.23;1.73;;;14.00;88.90;;;14.49;38.62;101370.53;6079841;22;118706;-48
2023/04/20 02:45:09;;;;;;;3.33;2.23;;;14.00;85.80;;;14.31;37.08;101368.56;6085719;22;105018;-53
2023/04/20 02:47:35;;;;;;;3.30;1.57;;;13.80;83.50;;;14.31;37.35;101371.22;6055407;22;97348;-51
2023/04/20 02:50:01;;;;;;;4.13;1.37;;;13.80;86.10;;;14.36;38.67;101361.31;6056146;23;115817;-47
2023/04/20 02:52:27;;;;;;;3.63;1.67;;;13.90;86.20;;;14.35;38.64;101362.22;6081881;22;97417;-47
2023/04/20 02:54:52;;;;;;;3.00;1.43;;;13.80;84.90;;;14.28;38.66;101355.41;6083044;22;125568;-47
2023/04/20 02:57:18;;;;;;;3.53;1.43;;;13.80;83.80;;;14.30;42.27;101358.88;6083263;22;117071;-49
2023/04/20 02:59:44;;;;;;;2.50;1.47;;;13.80;89.10;;;14.25;36.45;101350.25;6084316;22;98659;-49
2023/04/20 03:02:09;;;;;;;1.53;0.83;;;13.80;87.10;;;14.44;43.73;101345.94;6083671;22;128584;-47
2023/04/20 03:04:35;;;;;;;1.83;1.07;;;14.00;93.90;;;14.44;42.95;101356.56;6082168;22;116274;-51
2023/04/20 03:07:02;;;;;;;3.47;1.80;;;14.00;89.90;;;14.57;40.89;101355.13;6083445;22;103883;-50
2023/04/20 03:09:28;;;;;;;2.17;1.00;;;14.30;89.00;;;14.63;42.70;101347.88;6084254;22;96984;-52
2023/04/20 03:11:54;;;;;;;1.17;1.00;;;14.30;90.50;;;14.57;42.56;101349.81;6087032;22;112345;-52
2023/04/20 03:14:19;;;;;;;1.77;1.10;;;14.20;90.30;;;14.63;42.36;101353.19;6082216;22;97975;-47
2023/04/20 03:16:46;;;;;;;1.13;0.70;;;14.20;89.10;;;14.69;42.90;101345.81;6081458;22;101718;-52
2023/04/20 03:19:12;;;;;;;1.73;1.23;;;14.30;91.90;;;14.84;39.49;101349.59;6088992;22;97278;-50
2023/04/20 03:21:38;;;;;;;3.27;1.33;;;14.50;85.50;;;14.80;42.21;101348.03;6080444;22;97319;-52
2023/04/20 03:24:05;;;;;;;2.50;1.53;;;14.40;91.00;;;14.89;40.90;101347.59;6085716;22;107321;-53
2023/04/20 03:26:31;;;;;;;3.20;1.20;;;14.60;89.00;;;14.81;39.75;101344.44;6089067;22;107172;-49
2023/04/20 03:28:57;;;;;;;2.07;1.23;;;14.50;87.40;;;14.81;36.66;101339.13;6087958;22;112101;-52
2023/04/20 03:31:23;;;;;;;0.87;0.60;;;14.50;84.50;;;14.87;43.00;101342.38;6084838;22;97453;-53
2023/04/20 03:33:49;;;;;;;0.70;0.70;;;14.50;91.90;;;14.91;42.70;101340.47;6085790;22;97523;-48
2023/04/20 03:36:14;;;;;;;1.63;0.87;;;14.50;92.30;;;14.81;41.42;101339.13;6083960;22;102101;-52
2023/04/20 03:38:40;;;;;;;1.03;0.93;;;14.40;87.10;;;14.83;40.35;101337.25;6084283;22;97163;-51
2023/04/20 03:41:07;;;;;;;4.53;0.90;;;14.30;85.30;;;14.84;41.10;101338.97;6083441;22;116222;-51
2023/04/20 03:43:33;;;;;;;2.37;0.97;;;14.30;85.20;;;14.70;40.40;101338.69;6082385;22;97443;-49
2023/04/20 03:45:59;;;;;;;2.70;1.63;;;14.00;81.70;;;14.49;34.52;101332.50;6087501;22;97409;-51
2023/04/20 03:48:24;;;;;;;2.30;1.63;;;13.90;81.00;;;14.50;42.16;101323.63;6082997;22;97854;-49
2023/04/20 03:50:50;;;;;;;1.70;1.13;;;13.80;85.90;;;14.46;35.71;101322.84;6085498;22;97683;-50
2023/04/20 03:53:16;;;;;;;2.87;1.53;;;13.80;83.00;;;14.30;39.12;101327.03;6083225;22;97707;-48
2023/04/20 03:55:42;;;;;;;1.73;0.87;;;13.60;82.60;;;14.35;43.27;101330.38;6082385;22;97657;-50
2023/04/20 03:58:08;;;;;;;1.33;0.80;;;13.70;89.80;;;14.38;41.89;101318.78;6060284;23;111865;-51
2023/04/20 04:00:33;;;;;;;3.50;0.93;;;13.80;91.40;;;14.53;43.47;101324.34;6082056;22;97287;-51
2023/04/20 04:02:59;;;;;;;0.87;0.77;;;14.10;92.60;;;14.69;43.33;101321.91;6084431;22;114255;-50
2023/04/20 04:05:25;;;;;;;2.80;1.23;;;14.40;92.30;;;14.72;36.83;101315.59;6083773;22;96849;-48
2023/04/20 04:07:51;;;;;;;1.60;0.90;;;14.40;86.20;;;14.81;42.96;101323.19;6085403;22;96995;-52
2023/04/20 04:10:17;;;;;;;4.30;1.50;;;14.50;92.80;;;14.77;39.34;101317.16;6086694;22;115860;-52
2023/04/20 04:12:44;;;;;;;2.20;1.10;;;14.40;86.70;;;14.82;43.04;101316.94;6082829;22;97084;-51
2023/04/20 04:15:11;;;;;;;1.83;1.13;;;14.40;94.00;;;14.94;42.62;101324.38;6085126;22;97304;-50
2023/04/20 04:17:37;;;;;;;2.13;1.43;;;14.60;93.20;;;14.92;38.43;101310.31;6088445;23;104492;-48
2023/04/20 04:20:07;;;;;;;1.20;1.10;;;14.60;83.30;;;14.82;39.82;101308.97;6083539;22;97626;-48
2023/04/20 04:22:33;;;;;;;2.67;1.40;;;14.40;84.10;;;14.95;41.23;101315.50;6054543;22;98471;-47
2023/04/20 04:24:59;;;;;;;2.57;1.50;;;14.50;89.60;;;14.85;41.02;101308.84;6089136;22;102987;-47
2023/04/20 04:27:28;;;;;;;2.50;1.57;;;14.40;86.70;;;14.79;35.51;101309.09;6061644;22;97652;-48
2023/04/20 04:29:55;;;;;;;2.97;1.70;;;14.30;84.10;;;14.46;34.70;101301.63;6090162;22;98122;-51
2023/04/20 04:32:23;;;;;;;1.77;1.13;;;13.90;83.20;;;14.34;38.38;101312.72;6090546;22;97635;-52
2023/04/20 04:34:49;;;;;;;1.73;1.23;;;13.80;88.10;;;14.35;41.50;101302.97;6083375;22;97338;-49
2023/04/20 04:37:15;;;;;;;2.53;1.23;;;13.80;90.70;;;14.44;39.16;101306.13;6086947;22;96956;-52
2023/04/20 04:39:40;;;;;;;2.57;1.30;;;14.00;90.40;;;14.46;43.22;101306.91;6081651;22;101154;-51
2023/04/20 04:42:06;;;;;;;3.40;1.57;;;13.90;90.70;;;14.46;38.09;101304.28;6083305;22;98323;-52
2023/04/20 04:44:33;;;;;;;3.23;1.30;;;14.00;88.90;;;14.49;40.51;101301.50;6083776;22;97161;-51
2023/04/20 04:46:58;;;;;;;1.83;1.07;;;14.00;90.20;;;14.52;42.59;101301.38;6084910;22;97276;-51
2023/04/20 04:49:25;;;;;;;2.77;1.30;;;14.00;90.30;;;14.45;39.70;101299.03;6080146;22;110660;-51
2023/04/20 04:51:51;;;;;;;8.40;1.83;;;13.90;88.10;;;14.34;37.12;101299.47;6085469;22;97036;-52
2023/04/20 04:54:17;;;;;;;1.70;1.17;;;13.80;86.50;;;14.23;37.66;101299.03;6051869;23;98899;-48
2023/04/20 04:56:42;;;;;;;3.37;1.47;;;13.70;87.00;;;14.17;39.05;101304.56;6084761;22;97551;-53
2023/04/20 04:59:08;;;;;;;4.17;1.67;;;13.50;89.90;;;14.13;40.11;101302.97;6087677;22;105607;-50
2023/04/20 05:01:34;;;;;;;4.93;1.53;;;13.50;92.30;;;14.13;42.43;101302.97;6080681;22;108894;-54
2023/04/20 05:04:00;;;;;;;1.57;0.83;;;13.40;92.30;;;14.20;44.53;101304.47;6088925;22;97341;-53
2023/04/20 05:06:26;;;;;;;0.70;0.60;;;13.60;96.10;;;14.57;44.05;101311.78;6081431;22;97417;-49
2023/04/20 05:08:51;;;;;;;1.07;0.97;;;14.20;96.10;;;14.91;43.55;101303.28;6086088;22;98433;-51
2023/04/20 05:11:17;;;;;;;2.03;1.20;;;14.80;94.70;;;15.05;42.22;101310.66;6061877;23;96965;-50
2023/04/20 05:13:43;;;;;;;1.07;0.80;;;15.00;93.40;;;15.21;42.60;101303.72;6083244;22;97263;-51
2023/04/20 05:16:10;;;;;;;3.73;2.07;;;15.20;93.90;;;15.17;43.45;101299.44;6087443;23;110727;-53
2023/04/20 05:18:35;;;;;;;1.17;0.80;;;15.20;94.50;;;15.28;42.33;101301.63;6084181;22;100587;-51
2023/04/20 05:21:01;;;;;;;1.70;0.90;;;15.10;94.30;;;15.34;42.16;101299.59;6083919;22;116071;-52
2023/04/20 05:23:27;;;;;;;1.53;1.43;;;15.10;94.40;;;15.37;42.32;101303.88;6088533;22;97531;-52
2023/04/20 05:25:53;;;;;;;2.93;1.33;;;15.10;94.80;;;15.30;42.62;101294.44;6089733;22;97390;-52
2023/04/20 05:28:18;;;;;;;2.27;1.40;;;14.90;94.90;;;15.28;42.44;101301.63;6084465;22;103205;-48
2023/04/20 05:30:44;;;;;;;2.20;1.50;;;14.90;95.50;;;15.31;42.59;101298.84;6084403;22;124874;-48
2023/04/20 05:33:10;;;;;;;2.77;1.70;;;14.90;95.10;;;15.31;42.45;101296.19;6087447;22;96494;-52
2023/04/20 05:35:37;;;;;;;1.70;1.07;;;14.90;95.30;;;15.18;43.08;101291.41;6058840;22;108378;-52
2023/04/20 05:38:05;;;;;;;2.23;1.63;;;14.60;96.20;;;15.06;43.53;101302.59;6088158;22;98046;-51
2023/04/20 05:40:33;;;;;;;5.00;1.77;;;14.40;97.60;;;14.99;43.88;101306.44;6083301;22;97388;-55
2023/04/20 05:42:59;;;;;;;2.60;1.67;;;14.20;97.90;;;14.85;44.29;101299.06;6088961;22;97052;-53
2023/04/20 05:45:25;;;;;;;2.70;1.40;;;14.10;99.40;;;14.82;43.93;101304.53;6085235;22;97006;-52
2023/04/20 05:47:55;;;;;;;3.20;1.60;;;14.00;99.20;;;14.75;44.45;101296.88;6086895;22;99142;-49
2023/04/20 05:50:23;;;;;;;4.90;1.70;;;13.90;99.40;;;14.66;44.98;101308.75;6088602;23;97338;-50
2023/04/20 05:52:50;;;;;;;3.90;1.70;;;13.80;99.70;;;14.53;45.87;101307.56;6083029;22;97280;-48
2023/04/20 05:55:17;;;;;;;3.57;2.30;;;13.70;99.90;;;14.47;45.21;101298.06;6087987;22;97371;-51
2023/04/20 05:57:43;;;;;;;2.10;1.47;;;13.70;99.90;;;14.37;45.94;101304.63;6084666;22;97459;-55
2023/04/20 06:00:14;;;;;;;2.17;1.50;;;13.60;99.90;;;14.32;46.01;101298.66;6060930;23;97271;-51
2023/04/20 06:02:41;;;;;;;2.40;1.90;;;13.50;99.90;;;14.37;45.47;101307.28;6083335;22;97488;-51
2023/04/20 06:05:08;;;;;;;4.23;1.33;;;13.70;99.90;;;14.28;45.71;101305.88;6090842;22;96632;-51
2023/04/20 06:07:35;;;;;;;1.50;0.97;;;13.60;99.90;;;14.39;45.21;101300.13;6082426;22;97762;-49
2023/04/20 06:10:01;;;;;;;3.00;1.47;;;13.80;99.80;;;14.62;44.72;101298.34;6086488;22;97377;-55
2023/04/20 06:12:29;;;;;;;1.77;1.23;;;14.30;98.20;;;14.92;44.53;101291.72;6084181;22;97592;-53
2023/04/20 06:14:55;;;;;;;1.33;0.90;;;14.80;97.80;;;15.23;43.71;101287.69;6087238;22;97485;-54
2023/04/20 06:17:21;;;;;;;2.53;1.73;;;15.30;96.90;;;15.41;42.95;101286.88;6088195;22;98219;-53
2023/04/20 06:19:47;;;;;;;1.83;1.10;;;15.50;95.90;;;15.58;42.72;101296.72;6088625;22;130148;-50
2023/04/20 06:22:13;;;;;;;3.27;1.70;;;15.70;95.50;;;15.71;42.46;101296.09;6088596;22;99385;-49
2023/04/20 06:24:41;;;;;;;2.13;1.30;;;15.80;95.10;;;15.79;42.38;101286.91;6061835;22;97384;-53
2023/04/20 06:27:08;;;;;;;1.50;0.90;;;15.90;95.30;;;15.87;42.22;101290.06;6090036;22;97563;-50
2023/04/20 06:29:33;;;;;;;1.97;0.80;;;16.00;95.10;;;15.98;41.98;101293.06;6085390;22;97865;-52
2023/04/20 06:31:59;;;;;;;1.07;0.97;;;16.20;94.70;;;16.14;41.62;101288.75;6083264;22;114065;-50
2023/04/20 06:34:25;;;;;;;2.50;1.50;;;16.30;94.50;;;16.22;41.51;101291.91;6072605;22;97437;-53
2023/04/20 06:36:51;;;;;;;1.13;0.80;;;16.40;94.20;;;16.22;41.35;101286.56;6084768;23;97767;-54
2023/04/20 06:39:17;;;;;;;1.57;1.17;;;16.50;94.10;;;16.36;41.15;101289.41;6086064;22;97585;-51
2023/04/20 06:41:43;;;;;;;1.73;0.60;;;16.50;93.80;;;16.29;41.43;101287.97;6056411;22;97284;-50
2023/04/20 06:44:09;;;;;;;1.40;0.60;;;16.60;93.90;;;16.35;41.14;101279.72;6087318;22;99244;-51
2023/04/20 06:46:35;;;;;;;1.53;0.80;;;16.60;93.70;;;16.37;41.31;101276.97;6084154;22;99083;-54
2023/04/20 06:49:00;;;;;;;1.23;0.77;;;16.70;93.60;;;16.38;40.91;101283.16;6080129;22;97780;-50
2023/04/20 06:51:27;;;;;;;1.00;0.80;;;16.70;93.40;;;16.41;41.21;101285.66;6071699;22;100658;-52
2023/04/20 06:53:54;;;;;;;1.37;1.00;;;16.60;93.60;;;16.47;40.96;101286.19;6049566;23;97803;-54
2023/04/20 06:56:20;;;;;;;1.83;1.10;;;16.70;93.40;;;16.53;40.83;101285.91;6076449;22;97857;-54
2023/04/20 06:58:46;;;;;;;1.10;1.00;;;16.80;93.30;;;16.57;40.66;101281.28;6046349;22;97213;-53
2023/04/20 07:01:12;;;;;;;1.27;0.87;;;16.70;93.30;;;16.47;41.19;101277.34;6050442;23;100866;-51
2023/04/20 07:03:38;;;;;;;1.40;1.30;;;16.70;93.20;;;16.52;40.83;101278.84;6075576;22;97225;-50
2023/04/20 07:06:05;;;;;;;1.43;1.20;;;16.80;93.20;;;16.61;40.45;101282.84;6077409;22;97488;-49
2023/04/20 07:08:32;;;;;;;6.07;1.33;;;16.80;93.10;;;16.45;41.23;101284.56;6045118;22;99161;-49
2023/04/20 07:10:58;;;;;;;3.43;1.20;;;16.70;93.40;;;16.42;41.23;101287.38;6077238;22;97456;-50
2023/04/20 07:13:24;;;;;;;1.70;1.17;;;16.60;93.60;;;16.38;41.21;101280.50;6071859;22;99559;-49
2023/04/20 07:15:51;;;;;;;1.67;1.07;;;16.70;93.60;;;16.54;40.79;101276.13;6073903;22;97676;-49
2023/04/20 07:18:16;;;;;;;1.90;0.93;;;16.70;93.30;;;16.49;41.04;101283.44;6048189;23;122068;-49
2023/04/20 07:20:42;;;;;;;1.67;1.03;;;16.60;93.80;;;16.43;40.95;101279.31;6071981;22;96908;-52
2023/04/20 07:23:08;;;;;;;1.67;1.43;;;16.60;93.40;;;16.43;41.29;101278.44;6075907;22;97290;-53
2023/04/20 07:25:34;;;;;;;1.07;0.97;;;16.70;93.60;;;16.34;41.76;101280.63;6071971;22;121070;-50
2023/04/20 07:27:59;;;;;;;0.80;0.80;;;16.60;94.00;;;16.32;41.67;101282.50;6075547;22;115072;-47
2023/04/20 07:30:25;;;;;;;1.23;0.80;;;16.60;93.80;;;16.35;41.49;101274.38;6070589;22;99465;-52
2023/04/20 07:32:51;;;;;;;1.93;0.83;;;16.70;93.60;;;16.34;41.76;101280.63;6072368;22;97203;-51
2023/04/20 07:35:17;;;;;;;2.00;1.43;;;16.70;93.70;;;16.44;41.28;101283.69;6071518;22;97961;-54
2023/04/20 07:37:43;;;;;;;1.57;1.00;;;16.80;93.50;;;16.49;41.07;101272.81;6070715;22;97699;-53
2023/04/20 07:40:09;;;;;;;1.27;0.93;;;16.80;93.30;;;16.47;41.12;101274.69;6046709;23;97149;-53
2023/04/20 07:42:36;;;;;;;0.50;0.50;;;16.80;93.20;;;16.42;41.47;101277.59;6073238;22;97703;-53
2023/04/20 07:45:06;;;;;;;1.20;0.70;;;16.80;93.40;;;16.42;41.88;101280.25;6076632;22;97059;-48
2023/04/20 07:47:35;;;;;;;1.70;0.97;;;16.80;93.60;;;16.41;41.61;101275.00;6045846;22;98109;-50
2023/04/20 07:50:01;;;;;;;1.00;0.60;;;16.80;93.60;;;16.57;41.39;101282.13;6082667;22;96941;-49
2023/04/20 07:52:27;;;;;;;0.53;0.50;;;16.80;93.30;;;16.56;40.90;101275.09;6084543;22;96891;-50
2023/04/20 07:54:55;;;;;;;1.63;0.57;;;16.90;93.10;;;16.50;41.14;101269.22;6077444;22;114331;-52
2023/04/20 07:57:21;;;;;;;1.77;0.80;;;16.80;93.20;;;16.54;41.19;101281.44;6077260;22;98061;-52
2023/04/20 07:59:47;;;;;;;0.80;0.70;;;16.80;93.10;;;16.56;40.78;101274.22;6046358;23;97451;-52
2023/04/20 08:02:13;;;;;;;0.63;0.50;;;16.90;93.00;;;16.39;41.55;101271.56;6051083;23;97220;-51
2023/04/20 08:04:39;;;;;;;0.77;0.40;;;16.80;93.40;;;16.35;42.11;101271.72;6048430;23;98611;-49
2023/04/20 08:07:05;;;;;;;0.70;0.40;;;16.80;93.60;;;16.43;41.43;101262.47;6050020;23;97247;-50
2023/04/20 08:09:30;;;;;;;1.00;0.40;;;16.80;93.40;;;16.46;41.35;101259.66;6070407;22;98944;-52
2023/04/20 08:11:56;;;;;;;0.50;0.50;;;16.80;93.10;;;16.41;41.90;101264.34;6050340;23;108272;-54
2023/04/20 08:14:22;;;;;;;0.67;0.40;;;16.80;93.50;;;16.47;41.81;101258.72;6073607;22;111431;-59
2023/04/20 08:16:48;;;;;;;0.80;0.63;;;16.80;93.40;;;16.64;40.71;101253.41;6077323;22;101632;-50
2023/04/20 08:19:14;;;;;;;1.27;0.40;;;16.90;92.90;;;16.53;41.57;101259.28;6077333;22;97252;-51
2023/04/20 08:21:40;;;;;;;0.50;0.30;;;16.90;93.30;;;16.50;41.22;101264.75;6070373;22;97506;-53
2023/04/20 08:24:07;;;;;;;0.63;0.50;;;16.90;93.20;;;16.51;40.96;101257.63;6078111;22;97253;-50
2023/04/20 08:26:33;;;;;;;0.50;0.50;;;16.90;93.10;;;16.65;40.68;101258.66;6044273;22;97709;-47
2023/04/20 08:29:01;;;;;;;0.70;0.40;;;16.90;92.70;;;16.62;40.80;101256.13;6076499;22;97514;-51
2023/04/20 08:31:27;;;;;;;1.73;0.60;;;16.90;92.90;;;16.51;41.64;101255.84;6026145;22;1152988;-52
2023/04/20 08:33:52;;;;;;;0.53;0.40;;;16.90;93.20;;;16.50;41.51;101255.91;6051287;23;97627;-50
2023/04/20 08:36:18;;;;;;;1.20;0.93;;;16.90;93.20;;;16.59;40.67;101263.41;6079164;22;97149;-50
2023/04/20 08:38:44;;;;;;;1.43;0.87;;;16.90;92.40;;;16.55;40.99;101257.38;6048629;23;97185;-53
2023/04/20 08:41:12;;;;;;;0.93;0.70;;;16.90;93.00;;;16.52;41.37;101248.69;6079115;22;97410;-53
2023/04/20 08:43:38;;;;;;;0.93;0.60;;;16.90;93.20;;;16.63;40.84;101255.19;6075504;22;97813;-51
2023/04/20 08:46:04;;;;;;;1.17;0.40;;;17.00;92.90;;;16.58;41.36;101253.69;6074254;22;107924;-49
2023/04/20 08:48:36;;;;;;;0.50;0.50;;;16.90;93.00;;;16.58;41.15;101248.38;6066211;22;97082;-50
2023/04/20 08:51:03;;;;;;;0.70;0.60;;;16.90;93.50;;;16.60;40.94;101249.16;6078610;22;97399;-47
2023/04/20 08:53:32;;;;;;;0.47;0.37;;;16.90;92.80;;;16.62;40.58;101252.59;6072342;22;98000;-51
2023/04/20 08:55:58;;;;;;;0.60;0.43;;;17.00;92.60;;;16.71;40.47;101241.50;6075861;22;121194;-50
2023/04/20 08:58:28;;;;;;;1.00;0.83;;;17.00;92.60;;;16.76;40.33;101228.81;6073288;22;97357;-48
2023/04/20 09:00:54;;;;;;;0.70;0.50;;;17.00;92.40;;;16.60;41.02;101241.16;6078451;22;97523;-50
2023/04/20 09:03:43;;;;;;;0.50;0.30;;;16.90;93.00;;;16.69;39.57;101238.06;6077581;22;97365;-52
2023/04/20 09:06:17;;;;;;;0.77;0.60;;;16.90;92.30;;;16.70;40.50;101239.78;6076926;22;101128;-52
2023/04/20 09:08:44;;;;;;;0.67;0.43;;;16.90;92.70;;;16.69;40.61;101232.75;6076135;22;97341;-51
2023/04/20 09:11:43;;;;;;;0.70;0.70;;;16.90;92.70;;;16.64;40.79;101232.09;6079848;22;97126;-48
2023/04/20 09:14:19;;;;;;;0.70;0.43;;;16.90;92.90;;;16.78;40.70;101226.94;5995878;22;102998;-51
2023/04/20 09:16:50;;;;;;;0.93;0.80;;;17.00;92.60;;;16.70;40.66;101226.47;6075533;22;97287;-50
2023/04/20 09:19:24;;;;;;;0.63;0.47;;;17.00;92.70;;;16.73;40.63;101214.78;6079600;22;97211;-50
2023/04/20 09:21:53;;;;;;;0.83;0.40;;;17.00;92.50;;;16.72;40.73;101221.94;6078228;22;97542;-52
2023/04/20 09:24:21;;;;;;;2.33;0.50;;;17.00;92.60;;;16.67;40.82;101210.66;6085480;23;97596;-51
2023/04/20 09:26:47;;;;;;;1.07;0.53;;;17.00;92.80;;;16.55;41.27;101219.25;6072503;22;97173;-52
2023/04/20 09:29:22;;;;;;;0.77;0.70;;;16.90;93.10;;;16.45;41.75;101218.00;6053533;23;97562;-52
2023/04/20 09:31:49;;;;;;;0.60;0.60;;;16.90;93.30;;;16.48;41.76;101217.81;6073024;22;97341;-50
2023/04/20 09:34:15;;;;;;;0.60;0.50;;;16.80;92.90;;;16.49;41.66;101224.88;6070749;22;98506;-52
2023/04/20 09:36:54;;;;;;;0.60;0.50;;;16.90;93.10;;;16.41;42.06;101221.75;6072310;22;97918;-51
2023/04/20 09:39:22;;;;;;;0.57;0.53;;;16.80;93.40;;;16.34;41.98;101216.72;6072524;22;97564;-52
2023/04/20 09:41:50;;;;;;;1.37;0.60;;;16.80;93.30;;;16.39;41.82;101223.63;6047580;23;97628;-50
2023/04/20 09:44:17;;;;;;;0.63;0.50;;;16.80;93.20;;;16.51;41.28;101215.88;6074727;22;97421;-50
2023/04/20 09:46:44;;;;;;;0.50;0.47;;;16.90;92.90;;;16.43;41.75;101225.19;6075204;22;97848;-50
2023/04/20 09:49:12;;;;;;;0.93;0.70;;;16.80;93.30;;;16.36;41.73;101219.34;6082019;23;97402;-51
2023/04/20 09:51:43;;;;;;;1.00;0.70;;;16.80;93.20;;;16.36;42.39;101214.88;6075921;22;97408;-49
2023/04/20 09:54:10;;;;;;;1.40;0.43;;;16.80;93.50;;;16.42;41.70;101212.81;6079316;22;98719;-54
2023/04/20 09:56:38;;;;;;;0.93;0.60;;;16.80;93.20;;;16.40;41.36;101212.03;6074411;22;97411;-47
2023/04/20 09:59:04;;;;;;;0.50;0.40;;;16.80;93.10;;;16.35;41.44;101218.47;6079588;22;97308;-49
2023/04/20 10:01:33;;;;;;;0.40;0.30;;;16.80;93.20;;;16.36;41.75;101224.66;6051630;22;97945;-53
2023/04/20 10:04:01;;;;;;;0.70;0.30;;;16.80;93.20;;;16.38;41.24;101237.88;6051076;23;97730;-51
2023/04/20 10:06:33;;;;;;;0.50;0.40;;;16.80;93.00;;;16.34;41.74;101227.38;6073923;22;97711;-52
2023/04/20 10:09:03;;;;;;;0.67;0.57;;;16.70;93.20;;;16.48;41.25;101212.50;6054780;23;97256;-50